Time;durP1;ratioP1;P1;durP2;ratioP2;P2;SDS_P1;SDS_P2;PMS_P1;PMS_P2;Temp;Humidity;BMP_temperature;BMP_pressure;BME280_temperature;BME280_humidity;BME280_pressure;Samples;Min_cycle;Max_cycle;Signal;HPM_P1;HPM_P2
2023/03/01 00:03:45;;;;;;;;;;;18.30;28.80;;;;;;8363174;28;19952;-45
2023/03/01 00:07:45;;;;;;;;;;;18.30;28.80;;;;;;8363947;28;20366;-44
2023/03/01 00:11:46;;;;;;;;;;;18.30;28.80;;;;;;8363937;28;20393;-44
2023/03/01 00:15:46;;;;;;;;;;;18.20;28.80;;;;;;8363513;28;19916;-43
2023/03/01 00:19:47;;;;;;;;;;;18.20;28.80;;;;;;8363584;28;19921;-43
2023/03/01 00:23:48;;;;;;;;;;;18.20;28.90;;;;;;8363354;28;20012;-45
2023/03/01 00:27:49;;;;;;;;;;;18.10;28.80;;;;;;8362802;28;20046;-45
2023/03/01 00:31:49;;;;;;;;;;;18.20;28.90;;;;;;8363764;28;19963;-43
2023/03/01 00:35:50;;;;;;;;;;;18.10;28.90;;;;;;8363182;28;19939;-43
2023/03/01 00:39:50;;;;;;;;;;;18.10;28.90;;;;;;8362823;28;19958;-44
2023/03/01 00:43:50;;;;;;;;;;;18.00;28.90;;;;;;8363130;28;19921;-43
2023/03/01 00:47:51;;;;;;;;;;;18.10;28.90;;;;;;8362823;28;20358;-43
2023/03/01 00:51:51;;;;;;;;;;;18.00;28.90;;;;;;8362213;28;19917;-43
2023/03/01 00:55:52;;;;;;;;;;;18.00;28.80;;;;;;8363072;28;19924;-43
2023/03/01 00:59:52;;;;;;;;;;;18.00;28.90;;;;;;8363385;28;19936;-44
2023/03/01 01:03:54;;;;;;;;;;;18.00;28.90;;;;;;8362352;28;19916;-44
2023/03/01 01:07:54;;;;;;;;;;;18.00;28.90;;;;;;8363033;28;19995;-44
2023/03/01 01:11:55;;;;;;;;;;;17.90;28.90;;;;;;8362874;28;19928;-43
2023/03/01 01:16:00;;;;;;;;;;;17.90;28.90;;;;;;8362263;28;19920;-43
2023/03/01 01:20:00;;;;;;;;;;;17.90;28.90;;;;;;8362620;28;19964;-44
2023/03/01 01:24:02;;;;;;;;;;;17.90;28.90;;;;;;8361731;28;20365;-44
2023/03/01 01:28:02;;;;;;;;;;;17.90;28.90;;;;;;8362046;28;20022;-44
2023/03/01 01:32:03;;;;;;;;;;;17.80;28.90;;;;;;8362653;28;19917;-44
2023/03/01 01:36:04;;;;;;;;;;;17.80;29.00;;;;;;8365853;28;19921;-44
2023/03/01 01:40:05;;;;;;;;;;;17.80;28.90;;;;;;8368283;28;20294;-44
2023/03/01 01:44:17;;;;;;;;;;;17.80;29.00;;;;;;8368339;28;19921;-45
2023/03/01 01:48:22;;;;;;;;;;;17.80;28.90;;;;;;8368392;28;20062;-44
2023/03/01 01:52:34;;;;;;;;;;;17.80;28.90;;;;;;8367687;28;19948;-44
2023/03/01 01:56:36;;;;;;;;;;;17.80;28.90;;;;;;8368248;28;19917;-44
2023/03/01 02:00:37;;;;;;;;;;;17.80;29.00;;;;;;8368542;28;19978;-44
2023/03/01 02:04:37;;;;;;;;;;;17.70;28.90;;;;;;8367132;28;19917;-44
2023/03/01 02:08:41;;;;;;;;;;;17.70;28.90;;;;;;8356431;28;19921;-44
2023/03/01 02:12:41;;;;;;;;;;;17.70;28.90;;;;;;8367718;28;19990;-45
2023/03/01 02:16:42;;;;;;;;;;;17.70;29.00;;;;;;8366968;28;20355;-44
2023/03/01 02:20:52;;;;;;;;;;;17.70;29.00;;;;;;8368035;28;20397;-44
2023/03/01 02:24:55;;;;;;;;;;;17.60;29.00;;;;;;8366682;28;19917;-43
2023/03/01 02:28:55;;;;;;;;;;;17.60;29.00;;;;;;8367010;28;19917;-43
2023/03/01 02:33:02;;;;;;;;;;;17.60;29.00;;;;;;8367004;28;20389;-45
2023/03/01 02:37:05;;;;;;;;;;;17.60;29.00;;;;;;8367221;28;20324;-44
2023/03/01 02:41:06;;;;;;;;;;;17.60;29.00;;;;;;8367068;28;20019;-44
2023/03/01 02:45:06;;;;;;;;;;;17.60;29.00;;;;;;8366406;28;19916;-46
2023/03/01 02:49:36;;;;;;;;;;;17.60;29.00;;;;;;8365900;28;19932;-49
2023/03/01 02:53:41;;;;;;;;;;;17.60;29.00;;;;;;8349123;28;19917;-44
2023/03/01 02:57:43;;;;;;;;;;;17.50;29.00;;;;;;8366144;28;20418;-44
2023/03/01 03:01:43;;;;;;;;;;;17.50;29.00;;;;;;8366327;28;20379;-44
2023/03/01 03:05:44;;;;;;;;;;;17.50;29.00;;;;;;8366382;28;19925;-44
2023/03/01 03:09:45;;;;;;;;;;;17.50;29.00;;;;;;8365209;28;19956;-43
2023/03/01 03:13:47;;;;;;;;;;;17.50;29.00;;;;;;8365706;28;19917;-46
2023/03/01 03:17:49;;;;;;;;;;;17.50;29.10;;;;;;8365564;28;19912;-44
2023/03/01 03:21:49;;;;;;;;;;;17.40;29.00;;;;;;8365034;28;19925;-44
2023/03/01 03:25:50;;;;;;;;;;;17.40;29.00;;;;;;8365552;28;20362;-43
2023/03/01 03:29:50;;;;;;;;;;;17.40;29.10;;;;;;8365303;28;19921;-43
2023/03/01 03:33:51;;;;;;;;;;;17.40;29.00;;;;;;8364344;28;19913;-44
2023/03/01 03:38:03;;;;;;;;;;;17.40;29.00;;;;;;8364943;28;20376;-44
2023/03/01 03:42:04;;;;;;;;;;;17.40;29.00;;;;;;8365045;28;19955;-44
2023/03/01 03:46:07;;;;;;;;;;;17.30;29.00;;;;;;8364240;28;20007;-44
2023/03/01 03:50:08;;;;;;;;;;;17.40;29.10;;;;;;8364825;28;19921;-43
2023/03/01 03:54:10;;;;;;;;;;;17.30;29.00;;;;;;8364341;28;19919;-43
2023/03/01 03:58:11;;;;;;;;;;;17.30;29.10;;;;;;8363133;28;20353;-43
2023/03/01 04:02:11;;;;;;;;;;;17.30;29.00;;;;;;8364139;28;19931;-42
2023/03/01 04:06:15;;;;;;;;;;;17.30;29.10;;;;;;8364566;28;19913;-43
2023/03/01 04:10:16;;;;;;;;;;;17.30;29.10;;;;;;8363155;28;19916;-43
2023/03/01 04:14:17;;;;;;;;;;;17.30;29.10;;;;;;8363848;28;20358;-44
2023/03/01 04:18:19;;;;;;;;;;;17.30;29.10;;;;;;8363695;28;19924;-45
2023/03/01 04:22:19;;;;;;;;;;;17.30;29.00;;;;;;8363293;28;19913;-44
2023/03/01 04:26:19;;;;;;;;;;;17.30;29.10;;;;;;8363891;28;19936;-43
2023/03/01 04:30:20;;;;;;;;;;;17.30;29.10;;;;;;8363553;28;19921;-43
2023/03/01 04:34:20;;;;;;;;;;;17.30;29.00;;;;;;8362937;28;19966;-44
2023/03/01 04:38:21;;;;;;;;;;;17.30;29.10;;;;;;8363229;28;20015;-44
2023/03/01 04:42:21;;;;;;;;;;;17.30;29.10;;;;;;8363542;28;19920;-44
2023/03/01 04:46:22;;;;;;;;;;;17.30;29.10;;;;;;8362910;28;19936;-44
2023/03/01 04:50:23;;;;;;;;;;;17.30;29.10;;;;;;8362938;28;19917;-44
2023/03/01 04:54:23;;;;;;;;;;;17.20;29.10;;;;;;8362963;28;19970;-43
2023/03/01 04:58:25;;;;;;;;;;;17.20;29.00;;;;;;8362338;28;19925;-44
2023/03/01 05:02:25;;;;;;;;;;;17.20;29.00;;;;;;8363123;28;20285;-44
2023/03/01 05:06:26;;;;;;;;;;;17.20;29.10;;;;;;8362111;28;19916;-44
2023/03/01 05:10:28;;;;;;;;;;;17.20;29.10;;;;;;8364991;28;19916;-44
2023/03/01 05:14:29;;;;;;;;;;;17.30;29.10;;;;;;8369488;28;20263;-43
2023/03/01 05:18:30;;;;;;;;;;;17.40;29.10;;;;;;8369321;28;19925;-43
2023/03/01 05:22:31;;;;;;;;;;;17.50;29.00;;;;;;8368778;28;19991;-44
2023/03/01 05:26:31;;;;;;;;;;;17.60;28.90;;;;;;8369374;28;19913;-43
2023/03/01 05:30:32;;;;;;;;;;;17.70;28.90;;;;;;8369076;28;19917;-43
2023/03/01 05:34:35;;;;;;;;;;;17.80;28.90;;;;;;8368370;28;19917;-43
2023/03/01 05:38:35;;;;;;;;;;;17.90;28.90;;;;;;8368742;28;20015;-44
2023/03/01 05:42:36;;;;;;;;;;;18.00;28.80;;;;;;8368742;28;19912;-43
2023/03/01 05:46:36;;;;;;;;;;;18.10;28.80;;;;;;8368324;28;19921;-43
2023/03/01 05:50:39;;;;;;;;;;;18.10;28.80;;;;;;8368341;28;20030;-44
2023/03/01 05:54:39;;;;;;;;;;;18.20;28.70;;;;;;8368211;28;19921;-44
2023/03/01 05:58:39;;;;;;;;;;;18.30;28.80;;;;;;8367550;28;19983;-45
2023/03/01 06:02:40;;;;;;;;;;;18.30;28.70;;;;;;8368105;28;20380;-43
2023/03/01 06:06:40;;;;;;;;;;;18.40;28.70;;;;;;8368207;28;19913;-44
2023/03/01 06:10:41;;;;;;;;;;;18.40;28.70;;;;;;8367598;28;20003;-45
2023/03/01 06:14:41;;;;;;;;;;;18.50;28.70;;;;;;8367998;28;19923;-44
2023/03/01 06:18:42;;;;;;;;;;;18.50;28.70;;;;;;8367512;28;19948;-43
2023/03/01 06:22:43;;;;;;;;;;;18.60;28.70;;;;;;8366625;28;19913;-43
2023/03/01 06:26:43;;;;;;;;;;;18.60;28.70;;;;;;8367467;28;19963;-44
2023/03/01 06:30:44;;;;;;;;;;;18.70;28.70;;;;;;8366775;28;19920;-43
2023/03/01 06:34:44;;;;;;;;;;;18.60;28.70;;;;;;8366969;28;19948;-45
2023/03/01 06:38:45;;;;;;;;;;;18.70;28.70;;;;;;8366731;28;20305;-44
2023/03/01 06:42:48;;;;;;;;;;;18.70;28.60;;;;;;8366669;28;19913;-45
2023/03/01 06:46:49;;;;;;;;;;;18.80;28.70;;;;;;8366834;28;19924;-43
2023/03/01 06:50:49;;;;;;;;;;;18.80;28.60;;;;;;8366429;28;19917;-44
2023/03/01 06:54:50;;;;;;;;;;;18.80;28.60;;;;;;8365900;28;19916;-44
2023/03/01 06:58:50;;;;;;;;;;;18.90;28.70;;;;;;8365985;28;19925;-44
2023/03/01 07:02:51;;;;;;;;;;;18.90;28.70;;;;;;8366552;28;20388;-45
2023/03/01 07:06:54;;;;;;;;;;;18.90;28.70;;;;;;8365633;28;19917;-45
2023/03/01 07:10:56;;;;;;;;;;;18.90;28.60;;;;;;8365804;28;19921;-45
2023/03/01 07:14:56;;;;;;;;;;;19.00;28.60;;;;;;8365922;28;19921;-43
2023/03/01 07:18:57;;;;;;;;;;;19.00;28.60;;;;;;8365112;28;19928;-45
2023/03/01 07:22:58;;;;;;;;;;;19.00;28.60;;;;;;8365945;28;19955;-44
2023/03/01 07:26:58;;;;;;;;;;;19.10;28.60;;;;;;8365564;28;19921;-44
2023/03/01 07:31:02;;;;;;;;;;;19.10;28.60;;;;;;8364839;28;19986;-44
2023/03/01 07:35:03;;;;;;;;;;;19.10;28.50;;;;;;8363555;28;20449;-45
2023/03/01 07:39:03;;;;;;;;;;;19.10;28.50;;;;;;8364849;28;19925;-44
2023/03/01 07:43:04;;;;;;;;;;;19.20;28.50;;;;;;8364615;28;19921;-44
2023/03/01 07:47:04;;;;;;;;;;;19.20;28.50;;;;;;8364580;28;19920;-43
2023/03/01 07:51:05;;;;;;;;;;;19.20;28.50;;;;;;8364645;28;19925;-43
2023/03/01 07:55:06;;;;;;;;;;;19.20;28.50;;;;;;8363956;28;19924;-43
2023/03/01 07:59:06;;;;;;;;;;;19.20;28.50;;;;;;8364420;28;20405;-43
2023/03/01 08:03:07;;;;;;;;;;;19.20;28.50;;;;;;8364435;28;20350;-44
2023/03/01 08:07:07;;;;;;;;;;;19.20;28.50;;;;;;8354743;28;19950;-44
2023/03/01 08:11:10;;;;;;;;;;;19.30;28.60;;;;;;8352889;28;20006;-44
2023/03/01 08:15:11;;;;;;;;;;;19.20;28.50;;;;;;8364064;28;19995;-44
2023/03/01 08:19:12;;;;;;;;;;;19.20;28.50;;;;;;8363268;28;19932;-48
2023/03/01 08:23:12;;;;;;;;;;;19.20;28.50;;;;;;8363896;28;20435;-45
2023/03/01 08:27:14;;;;;;;;;;;19.20;28.50;;;;;;8363602;28;19924;-44
2023/03/01 08:31:20;;;;;;;;;;;19.10;28.40;;;;;;8363080;28;20332;-45
2023/03/01 08:35:20;;;;;;;;;;;19.10;28.50;;;;;;8363301;28;19959;-44
2023/03/01 08:39:21;;;;;;;;;;;19.10;28.50;;;;;;8363151;28;19925;-43
2023/03/01 08:43:24;;;;;;;;;;;19.00;28.50;;;;;;8362725;28;19913;-44
2023/03/01 08:47:26;;;;;;;;;;;19.00;28.50;;;;;;8362980;28;19955;-44
2023/03/01 08:51:26;;;;;;;;;;;19.00;28.60;;;;;;8362985;28;19917;-44
2023/03/01 08:55:26;;;;;;;;;;;18.90;28.50;;;;;;8362436;28;19985;-45
2023/03/01 08:59:29;;;;;;;;;;;18.80;28.50;;;;;;8363158;28;19983;-43
2023/03/01 09:03:29;;;;;;;;;;;18.80;28.50;;;;;;8363246;28;19986;-43
2023/03/01 09:07:30;;;;;;;;;;;18.80;28.60;;;;;;8362069;28;19974;-45
2023/03/01 09:11:30;;;;;;;;;;;18.70;28.60;;;;;;8362606;28;20003;-43
2023/03/01 09:15:31;;;;;;;;;;;18.70;28.60;;;;;;8362580;28;20293;-43
2023/03/01 09:19:31;;;;;;;;;;;18.70;28.60;;;;;;8361960;28;20332;-44
2023/03/01 09:23:32;;;;;;;;;;;18.70;28.70;;;;;;8362606;28;19958;-43
2023/03/01 09:27:32;;;;;;;;;;;18.60;28.60;;;;;;8362408;28;19917;-44
2023/03/01 09:31:33;;;;;;;;;;;18.50;28.70;;;;;;8361904;28;19923;-43
2023/03/01 09:35:33;;;;;;;;;;;18.50;28.60;;;;;;8362072;28;19917;-47
2023/03/01 09:39:34;;;;;;;;;;;18.50;28.70;;;;;;8362430;28;19925;-45
2023/03/01 09:43:34;;;;;;;;;;;18.50;28.70;;;;;;8362175;28;20141;-44
2023/03/01 09:47:35;;;;;;;;;;;18.40;28.70;;;;;;8361906;28;19921;-44
2023/03/01 09:51:36;;;;;;;;;;;18.40;28.80;;;;;;8362138;28;19916;-43
2023/03/01 09:55:44;;;;;;;;;;;18.40;28.80;;;;;;8362652;28;19991;-45
2023/03/01 09:59:50;;;;;;;;;;;18.40;28.80;;;;;;8368169;28;19925;-44
2023/03/01 10:04:00;;;;;;;;;;;18.40;28.80;;;;;;8367638;28;19912;-46
2023/03/01 10:08:00;;;;;;;;;;;18.30;28.80;;;;;;8367616;28;19956;-45
2023/03/01 10:12:02;;;;;;;;;;;18.30;28.80;;;;;;8367755;28;20324;-45
2023/03/01 10:16:16;;;;;;;;;;;18.30;28.80;;;;;;8367082;28;20374;-44
2023/03/01 10:20:21;;;;;;;;;;;18.20;28.80;;;;;;8367104;28;19925;-45
2023/03/01 10:24:22;;;;;;;;;;;18.20;28.80;;;;;;8367264;28;19974;-45
2023/03/01 10:28:28;;;;;;;;;;;18.20;28.80;;;;;;8366662;28;19917;-44
2023/03/01 10:32:29;;;;;;;;;;;18.20;28.90;;;;;;8367300;28;19923;-42
2023/03/01 10:36:32;;;;;;;;;;;18.20;28.90;;;;;;8366888;28;19948;-43
2023/03/01 10:40:48;;;;;;;;;;;18.10;28.90;;;;;;8366453;28;19928;-45
2023/03/01 10:44:49;;;;;;;;;;;18.10;28.90;;;;;;8366677;28;19920;-42
2023/03/01 10:49:02;;;;;;;;;;;18.10;28.90;;;;;;8366127;28;19948;-43
2023/03/01 10:53:04;;;;;;;;;;;18.10;28.90;;;;;;8366223;28;19992;-43
2023/03/01 10:57:05;;;;;;;;;;;18.00;28.90;;;;;;8366556;28;19970;-45
2023/03/01 11:01:23;;;;;;;;;;;18.00;28.90;;;;;;8366016;28;19928;-44
2023/03/01 11:05:24;;;;;;;;;;;18.00;28.90;;;;;;8364706;28;20289;-45
2023/03/01 11:09:28;;;;;;;;;;;18.00;28.90;;;;;;8364719;28;20262;-43
2023/03/01 11:13:28;;;;;;;;;;;18.00;28.90;;;;;;8365314;28;19917;-44
2023/03/01 11:17:30;;;;;;;;;;;18.00;29.00;;;;;;8365799;28;19960;-45
2023/03/01 11:21:32;;;;;;;;;;;18.00;29.40;;;;;;8365517;28;20336;-45
2023/03/01 11:25:35;;;;;;;;;;;17.90;28.90;;;;;;8364981;28;19923;-45
2023/03/01 11:29:38;;;;;;;;;;;17.90;29.00;;;;;;8365344;28;19916;-45
2023/03/01 11:33:38;;;;;;;;;;;17.90;29.00;;;;;;8365551;28;19992;-45
2023/03/01 11:37:58;;;;;;;;;;;17.90;29.00;;;;;;8364787;28;19924;-44
2023/03/01 11:42:13;;;;;;;;;;;17.90;29.00;;;;;;8364652;28;20291;-45
2023/03/01 11:46:31;;;;;;;;;;;17.90;29.00;;;;;;8364217;28;19917;-44
2023/03/01 11:50:43;;;;;;;;;;;17.90;29.00;;;;;;8364504;28;19912;-45
2023/03/01 11:54:52;;;;;;;;;;;17.90;29.00;;;;;;8364185;28;20430;-42
2023/03/01 11:58:56;;;;;;;;;;;17.80;29.00;;;;;;8363897;28;19925;-45
2023/03/01 12:03:15;;;;;;;;;;;17.80;29.00;;;;;;8363996;28;19920;-45
2023/03/01 12:07:21;;;;;;;;;;;17.80;29.00;;;;;;8363631;28;19923;-45
2023/03/01 12:11:30;;;;;;;;;;;17.80;29.00;;;;;;8364028;28;19916;-45
2023/03/01 12:15:52;;;;;;;;;;;17.80;29.10;;;;;;8363860;28;19921;-46
2023/03/01 12:20:14;;;;;;;;;;;17.80;29.10;;;;;;8363107;28;20417;-46
2023/03/01 12:24:33;;;;;;;;;;;17.80;29.00;;;;;;8363825;28;19921;-47
2023/03/01 12:28:45;;;;;;;;;;;17.70;29.00;;;;;;8362941;28;19995;-45
2023/03/01 12:32:52;;;;;;;;;;;17.80;29.10;;;;;;8363353;28;19924;-45
2023/03/01 12:36:55;;;;;;;;;;;17.80;29.00;;;;;;8362635;28;19921;-45
2023/03/01 12:41:19;;;;;;;;;;;17.70;29.00;;;;;;8363370;28;19929;-44
2023/03/01 12:45:25;;;;;;;;;;;17.70;29.00;;;;;;8352498;28;19913;-44
2023/03/01 12:49:28;;;;;;;;;;;17.70;29.00;;;;;;8362692;28;20328;-44
2023/03/01 12:53:34;;;;;;;;;;;17.70;29.00;;;;;;8362883;28;19999;-44
2023/03/01 12:57:40;;;;;;;;;;;17.70;29.00;;;;;;8362999;28;19991;-43
2023/03/01 13:01:45;;;;;;;;;;;17.70;29.00;;;;;;8362897;28;20401;-45
2023/03/01 13:05:54;;;;;;;;;;;17.70;29.00;;;;;;8362715;28;19963;-45
2023/03/01 13:10:01;;;;;;;;;;;17.70;29.00;;;;;;8362466;28;20179;-45
2023/03/01 13:14:19;;;;;;;;;;;17.70;29.00;;;;;;8363193;28;20428;-46
2023/03/01 13:18:22;;;;;;;;;;;17.70;29.00;;;;;;8362821;28;19917;-45
2023/03/01 13:22:28;;;;;;;;;;;17.70;29.00;;;;;;8362214;28;20373;-45
2023/03/01 13:26:28;;;;;;;;;;;17.70;29.00;;;;;;8362576;28;19939;-45
2023/03/01 13:30:35;;;;;;;;;;;17.70;29.00;;;;;;8364078;28;19924;-45
2023/03/01 13:34:40;;;;;;;;;;;17.70;29.00;;;;;;8368611;28;19921;-44
2023/03/01 13:38:47;;;;;;;;;;;17.70;29.00;;;;;;8368950;28;19917;-46
2023/03/01 13:42:48;;;;;;;;;;;17.70;29.00;;;;;;8368216;28;19996;-43
2023/03/01 13:46:50;;;;;;;;;;;17.70;29.00;;;;;;8368839;28;20333;-43
2023/03/01 13:50:52;;;;;;;;;;;17.70;29.00;;;;;;8368161;28;19921;-44
2023/03/01 13:54:53;;;;;;;;;;;17.70;29.00;;;;;;8367654;28;19917;-43
2023/03/01 13:59:05;;;;;;;;;;;17.70;29.00;;;;;;8368141;28;19972;-43
2023/03/01 14:03:10;;;;;;;;;;;17.70;29.00;;;;;;8368544;28;20381;-44
2023/03/01 14:07:22;;;;;;;;;;;17.70;29.00;;;;;;8365942;28;20352;-44
2023/03/01 14:11:38;;;;;;;;;;;17.70;29.00;;;;;;8367787;28;19917;-44
2023/03/01 14:15:57;;;;;;;;;;;17.70;28.90;;;;;;8367986;28;19996;-44
2023/03/01 14:19:59;;;;;;;;;;;17.70;29.00;;;;;;8367402;28;20382;-44
2023/03/01 14:24:00;;;;;;;;;;;17.70;29.00;;;;;;8367797;28;20042;-44
2023/03/01 14:28:15;;;;;;;;;;;17.70;29.00;;;;;;8367119;28;19917;-44
2023/03/01 14:32:24;;;;;;;;;;;17.70;29.00;;;;;;8367576;28;19921;-43
2023/03/01 14:36:26;;;;;;;;;;;17.70;29.00;;;;;;8367067;28;19913;-44
2023/03/01 14:40:34;;;;;;;;;;;17.70;29.00;;;;;;8366637;28;19921;-44
2023/03/01 14:44:37;;;;;;;;;;;17.70;29.00;;;;;;8366555;28;19923;-45
2023/03/01 14:48:37;;;;;;;;;;;17.70;29.00;;;;;;8366544;28;19917;-44
2023/03/01 14:52:39;;;;;;;;;;;17.70;29.00;;;;;;8365740;28;19916;-46
2023/03/01 14:56:44;;;;;;;;;;;17.60;29.00;;;;;;8366390;28;20325;-45
2023/03/01 15:00:55;;;;;;;;;;;17.70;29.00;;;;;;8365957;28;19928;-42
2023/03/01 15:04:57;;;;;;;;;;;17.60;28.90;;;;;;8365901;28;20467;-44
2023/03/01 15:08:57;;;;;;;;;;;17.70;29.00;;;;;;8366133;28;20366;-44
2023/03/01 15:13:27;;;;;;;;;;;17.60;29.00;;;;;;8365703;28;19955;-44
2023/03/01 15:17:35;;;;;;;;;;;17.60;29.00;;;;;;8348414;28;19939;-45
2023/03/01 15:21:37;;;;;;;;;;;17.60;29.00;;;;;;8365878;28;20289;-45
2023/03/01 15:25:38;;;;;;;;;;;17.60;29.00;;;;;;8365433;28;20416;-44
2023/03/01 15:29:40;;;;;;;;;;;17.60;29.00;;;;;;8365665;28;19917;-45
2023/03/01 15:33:47;;;;;;;;;;;17.60;29.00;;;;;;8365198;28;19917;-45
2023/03/01 15:37:48;;;;;;;;;;;17.60;29.40;;;;;;8365046;28;19940;-45
2023/03/01 15:41:49;;;;;;;;;;;17.60;29.00;;;;;;8364821;28;20463;-45
2023/03/01 15:45:55;;;;;;;;;;;17.60;29.00;;;;;;8364583;28;19995;-45
2023/03/01 15:49:57;;;;;;;;;;;17.60;29.00;;;;;;8364449;28;19935;-44
2023/03/01 15:53:59;;;;;;;;;;;17.60;29.00;;;;;;8363493;28;19971;-44
2023/03/01 15:58:01;;;;;;;;;;;17.60;29.00;;;;;;8363923;28;20378;-45
2023/03/01 16:02:01;;;;;;;;;;;17.60;29.00;;;;;;8364147;28;19968;-44
2023/03/01 16:06:02;;;;;;;;;;;17.60;29.00;;;;;;8364026;28;20026;-44
2023/03/01 16:10:03;;;;;;;;;;;17.60;29.10;;;;;;8363424;28;19916;-44
2023/03/01 16:14:03;;;;;;;;;;;17.60;29.00;;;;;;8363944;28;20366;-44
2023/03/01 16:18:09;;;;;;;;;;;17.70;29.00;;;;;;8363592;28;19923;-44
2023/03/01 16:22:10;;;;;;;;;;;17.80;29.00;;;;;;8362884;28;19924;-45
2023/03/01 16:26:11;;;;;;;;;;;17.90;28.90;;;;;;8363397;28;19913;-46
2023/03/01 16:30:12;;;;;;;;;;;18.00;28.90;;;;;;8363292;28;19950;-45
2023/03/01 16:34:12;;;;;;;;;;;18.10;28.80;;;;;;8362759;28;19973;-47
2023/03/01 16:38:13;;;;;;;;;;;18.20;28.70;;;;;;8363103;28;20389;-44
2023/03/01 16:42:14;;;;;;;;;;;18.30;28.70;;;;;;8363142;28;20286;-45
2023/03/01 16:46:32;;;;;;;;;;;18.40;28.70;;;;;;8362748;28;19913;-45
2023/03/01 16:50:33;;;;;;;;;;;18.40;28.70;;;;;;8362835;28;19957;-44
2023/03/01 16:54:33;;;;;;;;;;;18.50;28.70;;;;;;8362729;28;19971;-45
2023/03/01 16:58:34;;;;;;;;;;;18.60;28.70;;;;;;8361991;28;20000;-45
2023/03/01 17:02:35;;;;;;;;;;;18.60;28.70;;;;;;8362511;28;19986;-44
2023/03/01 17:06:35;;;;;;;;;;;18.70;28.70;;;;;;8367002;28;19921;-44
2023/03/01 17:10:36;;;;;;;;;;;18.80;28.70;;;;;;8368991;28;19917;-45
2023/03/01 17:14:37;;;;;;;;;;;18.80;28.70;;;;;;8369549;28;20005;-44
2023/03/01 17:18:38;;;;;;;;;;;18.80;28.70;;;;;;8369153;28;20279;-46
2023/03/01 17:22:39;;;;;;;;;;;18.90;28.60;;;;;;8368418;28;20019;-45
2023/03/01 17:26:39;;;;;;;;;;;18.90;28.60;;;;;;8369516;28;19913;-45
2023/03/01 17:30:43;;;;;;;;;;;19.00;28.60;;;;;;8368706;28;19916;-45
2023/03/01 17:34:45;;;;;;;;;;;19.00;28.60;;;;;;8368595;28;19971;-45
2023/03/01 17:38:46;;;;;;;;;;;19.00;28.60;;;;;;8368200;28;19924;-45
2023/03/01 17:42:46;;;;;;;;;;;19.10;28.60;;;;;;8368219;28;19920;-46
2023/03/01 17:46:47;;;;;;;;;;;19.10;28.60;;;;;;8368676;28;19920;-45
2023/03/01 17:50:47;;;;;;;;;;;19.10;28.50;;;;;;8350396;28;19917;-45
2023/03/01 17:54:48;;;;;;;;;;;19.20;28.60;;;;;;8367619;28;20404;-43
2023/03/01 17:58:48;;;;;;;;;;;19.20;28.60;;;;;;8367963;28;19921;-45
2023/03/01 18:02:49;;;;;;;;;;;19.20;28.50;;;;;;8367859;28;20279;-44
2023/03/01 18:06:49;;;;;;;;;;;19.20;28.50;;;;;;8367800;28;20267;-44
2023/03/01 18:10:56;;;;;;;;;;;19.20;28.50;;;;;;8350295;28;20000;-44
2023/03/01 18:14:57;;;;;;;;;;;19.20;28.50;;;;;;8367641;28;19917;-44
2023/03/01 18:18:57;;;;;;;;;;;19.30;28.50;;;;;;8331650;28;20432;-44
2023/03/01 18:22:57;;;;;;;;;;;19.30;28.60;;;;;;8367353;28;19948;-45
2023/03/01 18:26:58;;;;;;;;;;;19.30;28.60;;;;;;8367427;28;19913;-45
2023/03/01 18:31:00;;;;;;;;;;;19.30;28.50;;;;;;8366425;28;20309;-45
2023/03/01 18:35:00;;;;;;;;;;;19.30;28.50;;;;;;8349222;28;20427;-46
2023/03/01 18:39:02;;;;;;;;;;;19.40;28.60;;;;;;8367017;28;19921;-46
2023/03/01 18:43:02;;;;;;;;;;;19.30;28.50;;;;;;8366137;28;20289;-45
2023/03/01 18:47:03;;;;;;;;;;;19.40;28.60;;;;;;8367322;28;19920;-45
2023/03/01 18:51:07;;;;;;;;;;;19.40;28.60;;;;;;8366462;28;19973;-42
2023/03/01 18:55:08;;;;;;;;;;;19.40;28.60;;;;;;8365673;28;19983;-46
2023/03/01 18:59:09;;;;;;;;;;;19.40;28.60;;;;;;8365988;28;19929;-43
2023/03/01 19:03:10;;;;;;;;;;;19.40;28.50;;;;;;8366136;28;19924;-44
2023/03/01 19:07:11;;;;;;;;;;;19.50;28.50;;;;;;8365743;28;19913;-45
2023/03/01 19:11:13;;;;;;;;;;;19.50;28.50;;;;;;8365764;28;19921;-44
2023/03/01 19:15:15;;;;;;;;;;;19.50;28.50;;;;;;8365587;28;19916;-45
2023/03/01 19:19:15;;;;;;;;;;;19.50;28.50;;;;;;8364907;28;20484;-45
2023/03/01 19:23:16;;;;;;;;;;;19.50;28.90;;;;;;8365173;28;19917;-45
2023/03/01 19:27:16;;;;;;;;;;;19.50;28.50;;;;;;8364968;28;19913;-45
2023/03/01 19:31:18;;;;;;;;;;;19.60;28.50;;;;;;8364122;28;19995;-46
2023/03/01 19:35:18;;;;;;;;;;;19.60;28.50;;;;;;8364898;28;19951;-43
2023/03/01 19:39:19;;;;;;;;;;;19.60;28.50;;;;;;8365173;28;20340;-45
2023/03/01 19:43:19;;;;;;;;;;;19.60;28.50;;;;;;8364221;28;19913;-46
2023/03/01 19:47:20;;;;;;;;;;;19.60;28.50;;;;;;8364896;28;19966;-46
2023/03/01 19:51:21;;;;;;;;;;;19.70;28.50;;;;;;8364641;28;19917;-46
2023/03/01 19:55:21;;;;;;;;;;;19.60;28.40;;;;;;8364048;28;19939;-45
2023/03/01 19:59:23;;;;;;;;;;;19.70;28.50;;;;;;8364613;28;19978;-45
2023/03/01 20:03:28;;;;;;;;;;;19.70;28.50;;;;;;8363205;28;20002;-46
2023/03/01 20:07:28;;;;;;;;;;;19.70;28.40;;;;;;8364031;28;19913;-46
2023/03/01 20:11:28;;;;;;;;;;;19.80;28.90;;;;;;8363836;28;20336;-45
2023/03/01 20:15:29;;;;;;;;;;;19.80;28.50;;;;;;8364362;28;19917;-46
2023/03/01 20:19:29;;;;;;;;;;;19.80;28.50;;;;;;8363154;28;19931;-44
2023/03/01 20:23:30;;;;;;;;;;;19.80;28.40;;;;;;8363683;28;19912;-45
2023/03/01 20:27:30;;;;;;;;;;;19.80;28.40;;;;;;8363678;28;19924;-45
2023/03/01 20:31:31;;;;;;;;;;;19.80;28.40;;;;;;8363222;28;19966;-45
2023/03/01 20:35:34;;;;;;;;;;;19.80;28.40;;;;;;8363307;28;19921;-45
2023/03/01 20:39:35;;;;;;;;;;;19.70;28.30;;;;;;8362862;28;19964;-45
2023/03/01 20:43:35;;;;;;;;;;;19.70;28.30;;;;;;8362778;28;19959;-46
2023/03/01 20:47:36;;;;;;;;;;;19.70;28.30;;;;;;8363479;28;20421;-44
2023/03/01 20:51:36;;;;;;;;;;;19.70;28.40;;;;;;8363173;28;19917;-44
2023/03/01 20:55:37;;;;;;;;;;;19.60;28.40;;;;;;8362396;28;20317;-45
2023/03/01 20:59:37;;;;;;;;;;;19.60;28.40;;;;;;8363100;28;19925;-44
2023/03/01 21:03:39;;;;;;;;;;;19.70;28.40;;;;;;8362504;28;21294;-45
2023/03/01 21:07:41;;;;;;;;;;;19.70;28.50;;;;;;8362297;28;19917;-46
2023/03/01 21:11:42;;;;;;;;;;;19.70;28.50;;;;;;8345500;28;19939;-45
2023/03/01 21:15:42;;;;;;;;;;;19.70;28.50;;;;;;8362955;28;19919;-45
2023/03/01 21:19:43;;;;;;;;;;;19.70;28.40;;;;;;8362113;28;19925;-44
2023/03/01 21:23:44;;;;;;;;;;;19.70;28.40;;;;;;8362882;28;19913;-45
2023/03/01 21:27:44;;;;;;;;;;;19.80;28.30;;;;;;8362172;28;20420;-44
2023/03/01 21:31:45;;;;;;;;;;;19.80;28.30;;;;;;8362671;28;20039;-45
2023/03/01 21:35:45;;;;;;;;;;;19.80;28.30;;;;;;8362389;28;19924;-43
2023/03/01 21:39:46;;;;;;;;;;;19.80;28.30;;;;;;8361776;28;19928;-44
2023/03/01 21:43:47;;;;;;;;;;;19.70;28.30;;;;;;8362793;28;20250;-45
2023/03/01 21:47:48;;;;;;;;;;;19.70;28.30;;;;;;8362355;28;19916;-45
2023/03/01 21:51:48;;;;;;;;;;;19.70;28.30;;;;;;8363203;28;19912;-44
2023/03/01 21:55:50;;;;;;;;;;;19.60;28.20;;;;;;8368304;28;19924;-44
2023/03/01 21:59:50;;;;;;;;;;;19.60;28.30;;;;;;8368622;28;20294;-43
2023/03/01 22:03:50;;;;;;;;;;;19.60;28.30;;;;;;8367828;28;19913;-44
2023/03/01 22:07:51;;;;;;;;;;;19.50;28.30;;;;;;8368020;28;19916;-44
2023/03/01 22:11:53;;;;;;;;;;;19.50;28.30;;;;;;8367781;28;20285;-44
2023/03/01 22:15:53;;;;;;;;;;;19.50;28.30;;;;;;8367272;28;19924;-44
2023/03/01 22:19:54;;;;;;;;;;;19.50;28.40;;;;;;8349583;28;20381;-43
2023/03/01 22:23:55;;;;;;;;;;;19.40;28.40;;;;;;8367717;28;19913;-43
2023/03/01 22:27:55;;;;;;;;;;;19.40;28.40;;;;;;8366864;28;19917;-44
2023/03/01 22:31:57;;;;;;;;;;;19.30;28.50;;;;;;8367183;28;20397;-43
2023/03/01 22:35:57;;;;;;;;;;;19.30;28.50;;;;;;8367165;28;19939;-43
2023/03/01 22:39:58;;;;;;;;;;;19.30;28.50;;;;;;8366364;28;19925;-45
2023/03/01 22:43:58;;;;;;;;;;;19.20;28.50;;;;;;8366919;28;19916;-45
2023/03/01 22:47:59;;;;;;;;;;;19.20;28.50;;;;;;8366592;28;20383;-43
2023/03/01 22:52:00;;;;;;;;;;;19.10;28.50;;;;;;8366372;28;19924;-43
2023/03/01 22:56:09;;;;;;;;;;;19.10;28.50;;;;;;8366708;28;19916;-44
2023/03/01 23:00:12;;;;;;;;;;;19.10;28.60;;;;;;8365167;28;19925;-45
2023/03/01 23:04:13;;;;;;;;;;;19.00;28.60;;;;;;8337188;28;19996;-44
2023/03/01 23:08:13;;;;;;;;;;;19.00;28.70;;;;;;8364131;28;19917;-44
2023/03/01 23:12:14;;;;;;;;;;;19.00;28.70;;;;;;8366075;28;19923;-43
2023/03/01 23:16:15;;;;;;;;;;;18.90;28.70;;;;;;8365194;28;20035;-44
2023/03/01 23:20:15;;;;;;;;;;;18.90;28.70;;;;;;8365433;28;19925;-44
2023/03/01 23:24:17;;;;;;;;;;;18.90;28.80;;;;;;8365685;28;19916;-43
2023/03/01 23:28:17;;;;;;;;;;;18.80;28.80;;;;;;8364826;28;19944;-44
2023/03/01 23:32:18;;;;;;;;;;;18.80;28.80;;;;;;8365205;28;19970;-44